EGJB

Guernsey Airport

Saint Peter Port, Guernsey
METAR EGJB 201920Z 05004KT CAVOK 12/11 Q1030
Observed Flight Rules
Oct-20 @ 19:20 UTC (46 minutes ago) Visual Flight Rules
Wind Visibility Clouds
50° at 4 knots 10,000+ meters
  • Clear skies
Temperatures Readings
Current 12°C / 54°F
Dewpoint 11°C / 52°F
Humidity 94%
Altimeter 30.41" Hg
Pressure 1030 hPa
Elevation 102
METAR EGJB 201920Z 05004KT CAVOK 12/11 Q1030
Observed Flight Rules
Oct-20 @ 19:20 UTC
(46 minutes ago)
VFR
Wind Visibility
50° at 4 knots 10,000+ meters
Clouds
  • Clear skies
Temperature Dewpoint
12°C / 54°F 11°C / 52°F
Humidity Altimeter Pressure
94% 30.41" Hg 1030 hPa